Time;durP1;ratioP1;P1;durP2;ratioP2;P2;SDS_P1;SDS_P2;PMS_P1;PMS_P2;Temp;Humidity;BMP_temperature;BMP_pressure;BME280_temperature;BME280_humidity;BME280_pressure;Samples;Min_cycle;Max_cycle;Signal;HPM_P1;HPM_P2
2022/06/07 00:00:37;;;;;;;3.72;1.25;;;;;;;;;;5032313;28;20527;-75
2022/06/07 00:03:03;;;;;;;1.50;1.15;;;;;;;;;;5032109;28;20100;-76
2022/06/07 00:05:29;;;;;;;1.80;1.10;;;;;;;;;;5032032;28;20032;-75
2022/06/07 00:07:55;;;;;;;1.75;1.08;;;;;;;;;;5032396;28;20025;-74
2022/06/07 00:10:22;;;;;;;2.10;1.27;;;;;;;;;;5032721;28;20036;-76
2022/06/07 00:12:48;;;;;;;2.05;1.20;;;;;;;;;;5032261;28;20029;-77
2022/06/07 00:15:15;;;;;;;2.00;1.30;;;;;;;;;;5032802;28;20028;-75
2022/06/07 00:17:40;;;;;;;6.28;1.48;;;;;;;;;;5032638;28;20029;-75
2022/06/07 00:20:08;;;;;;;2.80;2.08;;;;;;;;;;5033642;28;20113;-76
2022/06/07 00:22:34;;;;;;;3.40;2.03;;;;;;;;;;5033370;28;20433;-76
2022/06/07 00:25:00;;;;;;;4.30;2.10;;;;;;;;;;5032793;28;20026;-76
2022/06/07 00:27:26;;;;;;;2.60;1.85;;;;;;;;;;5036514;28;20397;-75
2022/06/07 00:29:52;;;;;;;5.00;2.25;;;;;;;;;;5036647;28;20100;-75
2022/06/07 00:32:20;;;;;;;6.18;2.42;;;;;;;;;;5036255;28;20069;-76
2022/06/07 00:34:46;;;;;;;5.68;2.90;;;;;;;;;;5034397;28;20033;-75
2022/06/07 00:37:12;;;;;;;6.75;2.70;;;;;;;;;;5034884;28;20099;-75
2022/06/07 00:39:38;;;;;;;3.30;2.80;;;;;;;;;;5035137;28;20491;-76
2022/06/07 00:42:04;;;;;;;3.67;2.80;;;;;;;;;;5035069;28;20398;-76
2022/06/07 00:44:38;;;;;;;4.07;2.70;;;;;;;;;;5035624;28;20048;-76
2022/06/07 00:47:05;;;;;;;5.07;2.60;;;;;;;;;;5035077;28;20371;-76
2022/06/07 00:49:34;;;;;;;7.45;3.47;;;;;;;;;;5035465;28;20022;-76
2022/06/07 00:52:00;;;;;;;3.70;2.78;;;;;;;;;;5034564;28;20109;-76
2022/06/07 00:54:28;;;;;;;6.90;3.05;;;;;;;;;;5033385;28;20509;-76
2022/06/07 00:56:55;;;;;;;8.32;3.25;;;;;;;;;;5034325;28;20026;-76
2022/06/07 00:59:21;;;;;;;4.03;2.88;;;;;;;;;;5034145;28;20087;-75
2022/06/07 01:01:47;;;;;;;7.13;3.10;;;;;;;;;;5034701;28;20041;-76
2022/06/07 01:04:13;;;;;;;6.25;2.95;;;;;;;;;;5035370;28;20029;-74
2022/06/07 01:12:08;;;;;;;4.35;2.80;;;;;;;;;;5034398;28;20076;-76
2022/06/07 01:14:34;;;;;;;3.67;2.50;;;;;;;;;;5034682;28;20030;-76
2022/06/07 01:17:00;;;;;;;5.72;2.78;;;;;;;;;;5033864;28;20033;-76
2022/06/07 01:19:27;;;;;;;7.40;2.97;;;;;;;;;;5034473;28;20032;-76
2022/06/07 01:21:53;;;;;;;3.88;2.55;;;;;;;;;;5032863;28;20056;-76
2022/06/07 01:24:19;;;;;;;7.55;2.80;;;;;;;;;;5033819;28;20029;-75
2022/06/07 01:26:45;;;;;;;3.90;2.70;;;;;;;;;;5033079;28;20029;-74
2022/06/07 01:29:11;;;;;;;4.22;2.50;;;;;;;;;;5034086;28;20053;-74
2022/06/07 01:31:38;;;;;;;5.88;2.50;;;;;;;;;;5034033;28;20014;-76
2022/06/07 01:34:04;;;;;;;3.00;2.30;;;;;;;;;;5033941;28;20033;-75
2022/06/07 01:36:30;;;;;;;8.45;2.33;;;;;;;;;;5034321;28;20772;-77
2022/06/07 01:41:56;;;;;;;6.63;2.65;;;;;;;;;;5047220;28;20075;-78
2022/06/07 01:44:26;;;;;;;4.85;2.30;;;;;;;;;;5055693;28;20128;-76
2022/06/07 01:46:53;;;;;;;4.30;2.30;;;;;;;;;;5034236;28;20135;-74
2022/06/07 01:49:19;;;;;;;5.90;2.35;;;;;;;;;;5034417;28;20045;-75
2022/06/07 01:51:45;;;;;;;3.65;2.58;;;;;;;;;;5032607;28;20052;-76
2022/06/07 01:54:12;;;;;;;4.97;2.40;;;;;;;;;;5034707;28;20025;-76
2022/06/07 01:56:38;;;;;;;5.15;2.50;;;;;;;;;;5034215;28;20041;-77
2022/06/07 01:59:04;;;;;;;6.03;2.45;;;;;;;;;;5034205;28;20038;-75
2022/06/07 02:01:30;;;;;;;4.90;2.55;;;;;;;;;;5033816;28;20029;-75
2022/06/07 02:03:56;;;;;;;4.65;2.63;;;;;;;;;;5030697;28;20030;-74
2022/06/07 02:06:22;;;;;;;3.75;2.40;;;;;;;;;;5033230;28;20044;-75
2022/06/07 02:08:48;;;;;;;3.70;2.58;;;;;;;;;;5034213;28;20034;-75
2022/06/07 02:11:16;;;;;;;4.57;2.92;;;;;;;;;;5034850;28;20118;-76
2022/06/07 02:13:43;;;;;;;5.88;2.58;;;;;;;;;;5032703;28;20049;-75
2022/06/07 02:16:09;;;;;;;5.25;2.17;;;;;;;;;;5034794;28;20052;-75
2022/06/07 02:18:35;;;;;;;5.50;2.10;;;;;;;;;;5034401;28;20029;-75
2022/06/07 02:21:01;;;;;;;4.38;2.30;;;;;;;;;;5034472;28;20108;-74
2022/06/07 02:23:28;;;;;;;3.70;2.15;;;;;;;;;;5034355;28;20036;-75
2022/06/07 02:25:56;;;;;;;6.38;2.15;;;;;;;;;;5033870;28;20048;-74
2022/06/07 02:28:23;;;;;;;3.22;2.17;;;;;;;;;;5033890;28;20097;-75
2022/06/07 02:30:49;;;;;;;4.43;2.33;;;;;;;;;;5034395;28;20105;-75
2022/06/07 02:33:15;;;;;;;6.70;2.40;;;;;;;;;;5034517;28;20060;-75
2022/06/07 02:35:43;;;;;;;3.22;2.00;;;;;;;;;;5034935;28;20025;-75
2022/06/07 02:38:09;;;;;;;5.07;2.28;;;;;;;;;;5045218;28;20033;-75
2022/06/07 02:40:35;;;;;;;3.20;2.58;;;;;;;;;;5034826;28;20032;-75
2022/06/07 02:43:02;;;;;;;3.63;2.47;;;;;;;;;;5034165;28;20478;-76
2022/06/07 02:45:28;;;;;;;4.15;2.58;;;;;;;;;;5032312;28;20242;-75
2022/06/07 02:47:54;;;;;;;6.38;2.75;;;;;;;;;;5034080;28;20018;-76
2022/06/07 02:50:20;;;;;;;4.28;2.40;;;;;;;;;;5034504;28;20036;-75
2022/06/07 02:52:46;;;;;;;4.28;2.70;;;;;;;;;;5034041;28;20047;-75
2022/06/07 02:55:12;;;;;;;5.53;3.22;;;;;;;;;;5033813;28;20103;-76
2022/06/07 02:57:38;;;;;;;5.80;3.08;;;;;;;;;;5033162;28;20082;-75
2022/06/07 03:00:05;;;;;;;3.05;2.22;;;;;;;;;;5031964;28;20029;-74
2022/06/07 03:02:31;;;;;;;3.78;2.85;;;;;;;;;;5034026;28;20037;-75
2022/06/07 03:04:57;;;;;;;6.90;2.78;;;;;;;;;;5035715;28;20026;-76
2022/06/07 03:07:23;;;;;;;8.57;2.97;;;;;;;;;;5034378;28;20030;-76
2022/06/07 03:09:49;;;;;;;3.00;2.30;;;;;;;;;;5033426;28;20151;-77
2022/06/07 03:12:15;;;;;;;3.83;2.80;;;;;;;;;;5033203;28;20029;-77
2022/06/07 03:14:41;;;;;;;4.28;2.70;;;;;;;;;;5032704;28;20033;-78
2022/06/07 03:17:07;;;;;;;3.42;2.45;;;;;;;;;;5033274;28;20120;-77
2022/06/07 03:19:34;;;;;;;6.55;2.28;;;;;;;;;;5034783;28;20048;-77
2022/06/07 03:22:00;;;;;;;3.17;1.92;;;;;;;;;;5032225;28;20430;-75
2022/06/07 03:24:26;;;;;;;4.18;1.98;;;;;;;;;;5031832;28;20040;-76
2022/06/07 03:26:52;;;;;;;2.95;1.75;;;;;;;;;;5034618;28;20052;-76
2022/06/07 03:29:19;;;;;;;4.50;1.65;;;;;;;;;;5036988;28;20036;-75
2022/06/07 03:31:45;;;;;;;1.90;1.50;;;;;;;;;;5032734;28;20057;-76
2022/06/07 03:34:11;;;;;;;2.80;1.60;;;;;;;;;;5033411;28;20030;-75
2022/06/07 03:36:37;;;;;;;3.00;1.58;;;;;;;;;;5032510;28;20034;-75
2022/06/07 03:39:07;;;;;;;2.22;1.60;;;;;;;;;;5033348;28;20486;-75
2022/06/07 03:41:33;;;;;;;5.40;1.60;;;;;;;;;;5031792;28;20025;-77
2022/06/07 03:43:59;;;;;;;1.90;1.33;;;;;;;;;;5032972;28;20034;-77
2022/06/07 03:46:27;;;;;;;2.17;1.58;;;;;;;;;;5032557;28;20029;-75
2022/06/07 03:48:53;;;;;;;2.65;1.30;;;;;;;;;;5032706;28;20075;-76
2022/06/07 03:51:20;;;;;;;2.30;1.27;;;;;;;;;;5032801;28;20526;-77
2022/06/07 03:53:46;;;;;;;2.65;1.50;;;;;;;;;;5033883;28;20035;-77
2022/06/07 03:56:13;;;;;;;1.98;1.38;;;;;;;;;;5033891;28;20029;-77
2022/06/07 03:58:39;;;;;;;3.30;2.60;;;;;;;;;;5033194;28;20186;-76
2022/06/07 04:01:07;;;;;;;4.25;1.95;;;;;;;;;;5031490;28;20026;-76
2022/06/07 04:03:33;;;;;;;3.13;1.52;;;;;;;;;;5032477;28;20429;-76
2022/06/07 04:05:59;;;;;;;2.95;1.60;;;;;;;;;;5032450;28;20076;-75
2022/06/07 04:08:28;;;;;;;2.63;1.80;;;;;;;;;;5031308;28;20051;-76
2022/06/07 04:10:56;;;;;;;1.80;1.50;;;;;;;;;;5031657;28;20067;-77
2022/06/07 04:13:23;;;;;;;2.78;1.77;;;;;;;;;;5032494;28;20022;-75
2022/06/07 04:15:49;;;;;;;2.90;1.60;;;;;;;;;;5032483;28;20025;-76
2022/06/07 04:18:15;;;;;;;3.03;1.92;;;;;;;;;;5032853;28;20463;-76
2022/06/07 04:20:41;;;;;;;8.35;2.40;;;;;;;;;;5046842;28;20034;-76
2022/06/07 04:23:07;;;;;;;2.13;1.70;;;;;;;;;;5032845;28;20661;-77
2022/06/07 04:25:34;;;;;;;5.82;2.03;;;;;;;;;;5033215;28;20018;-77
2022/06/07 04:28:00;;;;;;;2.10;1.77;;;;;;;;;;5034094;28;20030;-77
2022/06/07 04:30:26;;;;;;;5.70;1.90;;;;;;;;;;5034433;28;20466;-76
2022/06/07 04:32:52;;;;;;;1.75;1.60;;;;;;;;;;5033146;28;20033;-76
2022/06/07 04:35:18;;;;;;;3.60;1.95;;;;;;;;;;5032976;28;20022;-77
2022/06/07 04:37:48;;;;;;;2.78;1.85;;;;;;;;;;5033050;28;20017;-77
2022/06/07 04:40:14;;;;;;;4.72;2.40;;;;;;;;;;5032015;28;20040;-77
2022/06/07 04:42:41;;;;;;;7.90;2.10;;;;;;;;;;5032791;28;20026;-77
2022/06/07 04:45:09;;;;;;;2.70;2.20;;;;;;;;;;5033079;28;20025;-77
2022/06/07 04:47:36;;;;;;;5.80;2.40;;;;;;;;;;5037477;28;20027;-75
2022/06/07 04:50:02;;;;;;;3.08;2.35;;;;;;;;;;5049464;28;20478;-77
2022/06/07 04:52:28;;;;;;;4.43;2.78;;;;;;;;;;5046728;28;20479;-75
2022/06/07 04:54:54;;;;;;;4.13;2.50;;;;;;;;;;5034648;28;20037;-75
2022/06/07 04:57:20;;;;;;;3.72;2.30;;;;;;;;;;5032527;28;20438;-76
2022/06/07 04:59:46;;;;;;;5.25;2.72;;;;;;;;;;5034601;28;20544;-76
2022/06/07 05:02:12;;;;;;;3.65;2.30;;;;;;;;;;5038058;28;20029;-76
2022/06/07 05:04:38;;;;;;;9.45;3.00;;;;;;;;;;5034378;28;20064;-75
2022/06/07 05:07:04;;;;;;;3.22;2.70;;;;;;;;;;5034040;28;20060;-77
2022/06/07 05:09:31;;;;;;;4.63;3.10;;;;;;;;;;5032028;28;20051;-77
2022/06/07 05:11:56;;;;;;;5.03;2.53;;;;;;;;;;5036304;28;20463;-75
2022/06/07 05:14:23;;;;;;;7.65;3.25;;;;;;;;;;5036750;28;20067;-75
2022/06/07 05:16:50;;;;;;;5.20;3.42;;;;;;;;;;5039131;28;20032;-75
2022/06/07 05:19:16;;;;;;;7.60;4.20;;;;;;;;;;5036669;28;20029;-77
2022/06/07 05:21:42;;;;;;;5.07;3.13;;;;;;;;;;5036361;28;20029;-76
2022/06/07 05:24:09;;;;;;;3.67;2.92;;;;;;;;;;5042544;28;20044;-74
2022/06/07 05:26:42;;;;;;;6.40;3.45;;;;;;;;;;5059753;28;20029;-78
2022/06/07 05:29:16;;;;;;;4.13;3.15;;;;;;;;;;5039712;28;20116;-77
2022/06/07 05:31:42;;;;;;;5.93;4.10;;;;;;;;;;5038275;28;20063;-77
2022/06/07 05:34:08;;;;;;;5.82;4.05;;;;;;;;;;5036011;28;20025;-75
2022/06/07 05:36:34;;;;;;;8.52;4.57;;;;;;;;;;5036284;28;20070;-77
2022/06/07 05:39:03;;;;;;;7.20;4.45;;;;;;;;;;5037296;28;20104;-76
2022/06/07 05:41:32;;;;;;;10.15;5.15;;;;;;;;;;5036480;28;20478;-75
2022/06/07 05:43:58;;;;;;;9.88;4.72;;;;;;;;;;5036257;28;20034;-75
2022/06/07 05:46:25;;;;;;;9.20;5.55;;;;;;;;;;5036834;28;20033;-76
2022/06/07 05:48:51;;;;;;;16.40;9.05;;;;;;;;;;5036627;28;20049;-75
2022/06/07 05:51:17;;;;;;;12.02;4.82;;;;;;;;;;5037941;28;20033;-75
2022/06/07 05:53:43;;;;;;;9.60;6.18;;;;;;;;;;5036180;28;20057;-76
2022/06/07 05:56:11;;;;;;;10.52;5.78;;;;;;;;;;5036206;28;20029;-76
2022/06/07 05:58:37;;;;;;;9.70;5.75;;;;;;;;;;5035897;28;20083;-75
2022/06/07 06:01:04;;;;;;;11.82;6.70;;;;;;;;;;5036365;28;20029;-77
2022/06/07 06:03:30;;;;;;;8.77;6.78;;;;;;;;;;5036932;28;20045;-77
2022/06/07 06:05:56;;;;;;;9.55;6.30;;;;;;;;;;5039763;28;20422;-76
2022/06/07 06:11:11;;;;;;;11.13;7.40;;;;;;;;;;5038172;28;20044;-77
2022/06/07 06:13:38;;;;;;;14.25;7.95;;;;;;;;;;5038266;28;20032;-77
2022/06/07 06:16:09;;;;;;;14.50;8.70;;;;;;;;;;5041581;28;20025;-77
2022/06/07 06:18:35;;;;;;;16.10;9.38;;;;;;;;;;5042677;28;20075;-77
2022/06/07 06:21:01;;;;;;;14.13;9.45;;;;;;;;;;5033892;28;20021;-76
2022/06/07 06:23:28;;;;;;;14.00;8.43;;;;;;;;;;5035502;28;20030;-76
2022/06/07 06:25:54;;;;;;;16.15;10.35;;;;;;;;;;5035433;28;20021;-76
2022/06/07 06:28:20;;;;;;;17.15;10.35;;;;;;;;;;5041903;28;20168;-77
2022/06/07 06:30:47;;;;;;;20.80;11.70;;;;;;;;;;5046387;28;20024;-76
2022/06/07 06:33:14;;;;;;;19.27;11.05;;;;;;;;;;5040059;28;20028;-76
2022/06/07 06:35:47;;;;;;;20.52;11.73;;;;;;;;;;5042771;28;20030;-76
2022/06/07 06:38:13;;;;;;;17.15;11.60;;;;;;;;;;5040330;28;20420;-75
2022/06/07 06:40:39;;;;;;;21.17;11.77;;;;;;;;;;5039341;28;20108;-75
2022/06/07 06:43:05;;;;;;;18.52;11.98;;;;;;;;;;5039055;28;20049;-77
2022/06/07 06:45:31;;;;;;;23.55;13.07;;;;;;;;;;5040404;28;20363;-76
2022/06/07 06:47:57;;;;;;;21.42;12.60;;;;;;;;;;5043524;28;20055;-75
2022/06/07 06:50:23;;;;;;;21.88;13.65;;;;;;;;;;5047016;28;20021;-75
2022/06/07 06:52:49;;;;;;;24.40;14.10;;;;;;;;;;5048017;28;20033;-76
2022/06/07 06:55:15;;;;;;;24.10;13.80;;;;;;;;;;5041483;28;20013;-76
2022/06/07 06:57:41;;;;;;;24.83;13.00;;;;;;;;;;5045423;28;20021;-76
2022/06/07 07:00:09;;;;;;;23.48;14.02;;;;;;;;;;5058222;28;20021;-76
2022/06/07 07:02:35;;;;;;;27.15;14.73;;;;;;;;;;5056978;28;20082;-75
2022/06/07 07:05:01;;;;;;;26.45;13.68;;;;;;;;;;5058358;28;20021;-77
2022/06/07 07:07:27;;;;;;;25.67;13.20;;;;;;;;;;5056176;28;20101;-76
2022/06/07 07:09:55;;;;;;;21.73;12.65;;;;;;;;;;5047321;28;20033;-75
2022/06/07 07:12:21;;;;;;;29.45;13.38;;;;;;;;;;5042527;28;20022;-76
2022/06/07 07:14:48;;;;;;;29.92;13.02;;;;;;;;;;5043714;28;20605;-78
2022/06/07 07:17:14;;;;;;;26.33;12.23;;;;;;;;;;5043322;28;20024;-75
2022/06/07 07:19:40;;;;;;;24.33;12.75;;;;;;;;;;5041025;28;20136;-77
2022/06/07 07:22:06;;;;;;;24.05;12.32;;;;;;;;;;5037843;28;20042;-77
2022/06/07 07:24:32;;;;;;;27.25;13.13;;;;;;;;;;5038312;28;20034;-76
2022/06/07 07:26:59;;;;;;;22.45;11.85;;;;;;;;;;5041961;28;20490;-79
2022/06/07 07:29:25;;;;;;;19.38;10.60;;;;;;;;;;5039357;28;20072;-76
2022/06/07 07:31:52;;;;;;;20.05;11.35;;;;;;;;;;5036026;28;20052;-78
2022/06/07 07:34:19;;;;;;;20.70;10.27;;;;;;;;;;5036358;28;20371;-76
2022/06/07 07:36:46;;;;;;;29.13;13.10;;;;;;;;;;5035379;28;20055;-76
2022/06/07 07:39:12;;;;;;;48.78;15.85;;;;;;;;;;5035479;28;20025;-76
2022/06/07 07:41:40;;;;;;;59.72;19.10;;;;;;;;;;5042883;28;20062;-77
2022/06/07 07:44:07;;;;;;;18.92;9.48;;;;;;;;;;5038259;28;20034;-77
2022/06/07 07:46:35;;;;;;;24.33;10.57;;;;;;;;;;5035721;28;20021;-75
2022/06/07 07:49:02;;;;;;;22.58;10.75;;;;;;;;;;5037904;28;20049;-78
2022/06/07 07:51:30;;;;;;;19.50;9.27;;;;;;;;;;5037334;28;20024;-77
2022/06/07 07:53:57;;;;;;;18.88;9.48;;;;;;;;;;5036960;28;20478;-77
2022/06/07 07:56:24;;;;;;;15.85;9.30;;;;;;;;;;5034561;28;20032;-78
2022/06/07 07:58:51;;;;;;;16.77;8.85;;;;;;;;;;5035997;28;20029;-77
2022/06/07 08:01:18;;;;;;;31.38;12.02;;;;;;;;;;5036977;28;20025;-77
2022/06/07 08:03:45;;;;;;;37.53;12.93;;;;;;;;;;5039852;28;20032;-77
2022/06/07 08:06:12;;;;;;;19.40;10.52;;;;;;;;;;5034581;28;20040;-76
2022/06/07 08:08:39;;;;;;;22.00;10.63;;;;;;;;;;5033768;28;20021;-77
2022/06/07 08:11:06;;;;;;;17.98;8.40;;;;;;;;;;5034682;28;20025;-76
2022/06/07 08:13:32;;;;;;;23.98;11.27;;;;;;;;;;5034932;28;20458;-76
2022/06/07 08:15:59;;;;;;;24.25;11.60;;;;;;;;;;5035216;28;20034;-77
2022/06/07 08:18:25;;;;;;;18.17;8.38;;;;;;;;;;5041034;28;20379;-77
2022/06/07 08:20:56;;;;;;;21.98;7.90;;;;;;;;;;5039117;28;20030;-77
2022/06/07 08:23:22;;;;;;;20.90;8.65;;;;;;;;;;5044875;28;20029;-78
2022/06/07 08:25:48;;;;;;;14.35;8.25;;;;;;;;;;5044253;28;20036;-76
2022/06/07 08:28:14;;;;;;;15.32;7.78;;;;;;;;;;5044144;28;20309;-76
2022/06/07 08:30:44;;;;;;;23.58;9.02;;;;;;;;;;5041142;28;20072;-77
2022/06/07 08:38:39;;;;;;;21.52;10.02;;;;;;;;;;5037935;28;20091;-78
2022/06/07 08:41:05;;;;;;;16.70;8.55;;;;;;;;;;5033968;28;20033;-77
2022/06/07 08:43:31;;;;;;;17.70;7.32;;;;;;;;;;5034248;28;20049;-76
2022/06/07 08:45:58;;;;;;;12.95;7.00;;;;;;;;;;5035505;28;20546;-76
2022/06/07 08:48:28;;;;;;;15.73;7.43;;;;;;;;;;5039884;28;20029;-77
2022/06/07 08:50:57;;;;;;;14.07;6.88;;;;;;;;;;5047003;28;20025;-77
2022/06/07 08:53:29;;;;;;;17.05;6.88;;;;;;;;;;5045193;28;20029;-76
2022/06/07 08:55:58;;;;;;;13.43;6.97;;;;;;;;;;5037823;28;20509;-76
2022/06/07 08:58:29;;;;;;;15.13;6.93;;;;;;;;;;5038484;28;20026;-76
2022/06/07 09:00:57;;;;;;;13.88;6.32;;;;;;;;;;5039963;28;20037;-77
2022/06/07 09:03:26;;;;;;;14.85;6.90;;;;;;;;;;5040435;28;20047;-78
2022/06/07 09:05:53;;;;;;;10.63;6.70;;;;;;;;;;5048611;28;20093;-76
2022/06/07 09:08:19;;;;;;;10.77;6.57;;;;;;;;;;5053500;28;20021;-76
2022/06/07 09:13:34;;;;;;;11.77;5.93;;;;;;;;;;5039160;28;20224;-77
2022/06/07 09:16:00;;;;;;;13.98;6.28;;;;;;;;;;5038367;28;20502;-75
2022/06/07 09:18:28;;;;;;;15.95;6.47;;;;;;;;;;5037011;28;20028;-78
2022/06/07 09:21:09;;;;;;;14.63;6.07;;;;;;;;;;5040136;28;20026;-76
2022/06/07 09:23:46;;;;;;;13.13;6.80;;;;;;;;;;5039606;28;20026;-77
2022/06/07 09:26:19;;;;;;;11.80;7.47;;;;;;;;;;5036038;28;20097;-78
2022/06/07 09:28:46;;;;;;;17.38;7.25;;;;;;;;;;5040287;28;20486;-77
2022/06/07 09:31:14;;;;;;;14.13;8.15;;;;;;;;;;5040086;28;20037;-77
2022/06/07 09:33:50;;;;;;;16.42;7.38;;;;;;;;;;5041412;28;20021;-77
2022/06/07 09:36:19;;;;;;;11.70;7.50;;;;;;;;;;5037069;28;20100;-76
2022/06/07 09:38:49;;;;;;;13.05;7.25;;;;;;;;;;5037527;28;20025;-76
2022/06/07 09:44:21;;;;;;;14.65;7.30;;;;;;;;;;5044141;28;20040;-78
2022/06/07 09:47:04;;;;;;;18.58;7.20;;;;;;;;;;5051185;28;20063;-77
2022/06/07 09:49:48;;;;;;;13.05;7.65;;;;;;;;;;5042434;28;20117;-77
2022/06/07 09:52:14;;;;;;;15.00;7.43;;;;;;;;;;5039579;28;20029;-77
2022/06/07 09:54:42;;;;;;;17.55;8.45;;;;;;;;;;5041227;28;20064;-77
2022/06/07 09:57:15;;;;;;;13.02;7.25;;;;;;;;;;5046990;28;20048;-76
2022/06/07 09:59:45;;;;;;;12.63;7.37;;;;;;;;;;5037357;28;20056;-77
2022/06/07 10:02:28;;;;;;;12.48;7.80;;;;;;;;;;5038218;28;20025;-76
2022/06/07 10:04:57;;;;;;;11.82;7.25;;;;;;;;;;5043798;28;20429;-76
2022/06/07 10:07:37;;;;;;;12.98;6.40;;;;;;;;;;5045039;28;20037;-77
2022/06/07 10:10:08;;;;;;;12.55;6.82;;;;;;;;;;5049376;28;20033;-77
2022/06/07 10:12:41;;;;;;;15.55;6.90;;;;;;;;;;5048842;28;20021;-77
2022/06/07 10:15:10;;;;;;;15.00;6.95;;;;;;;;;;5046793;28;20351;-76
2022/06/07 10:17:45;;;;;;;13.55;5.97;;;;;;;;;;5045196;28;20025;-77
2022/06/07 10:20:11;;;;;;;11.30;6.18;;;;;;;;;;5041180;28;20075;-78
2022/06/07 10:22:58;;;;;;;14.82;5.63;;;;;;;;;;5038748;28;20034;-77
2022/06/07 10:25:33;;;;;;;12.85;5.50;;;;;;;;;;5041017;28;20062;-77
2022/06/07 10:27:59;;;;;;;16.13;5.60;;;;;;;;;;5042214;28;20018;-76
2022/06/07 10:30:27;;;;;;;13.13;5.93;;;;;;;;;;5042321;28;20032;-77
2022/06/07 10:33:08;;;;;;;12.80;6.75;;;;;;;;;;5041548;28;20021;-77
2022/06/07 10:35:42;;;;;;;9.00;6.55;;;;;;;;;;5044736;28;20021;-77
2022/06/07 10:38:23;;;;;;;14.25;8.05;;;;;;;;;;5039888;28;20024;-78
2022/06/07 10:41:03;;;;;;;16.33;7.32;;;;;;;;;;5041770;28;20078;-77
2022/06/07 10:43:35;;;;;;;16.17;8.50;;;;;;;;;;5040991;28;20053;-77
2022/06/07 10:46:01;;;;;;;16.70;9.77;;;;;;;;;;5045973;28;20029;-76
2022/06/07 10:48:43;;;;;;;15.40;9.48;;;;;;;;;;5041058;28;20035;-77
2022/06/07 10:54:10;;;;;;;31.52;16.25;;;;;;;;;;5069333;22;20087;-77
2022/06/07 10:56:43;;;;;;;16.33;10.60;;;;;;;;;;5043793;28;20069;-76
2022/06/07 10:59:16;;;;;;;17.65;10.80;;;;;;;;;;5041021;28;20063;-77
2022/06/07 11:01:48;;;;;;;17.42;10.15;;;;;;;;;;5038100;28;20030;-78
2022/06/07 11:10:19;;;;;;;20.45;10.73;;;;;;;;;;5037438;28;20113;-78
2022/06/07 11:12:59;;;;;;;17.48;10.77;;;;;;;;;;5040550;28;20036;-76
2022/06/07 11:15:38;;;;;;;19.48;10.10;;;;;;;;;;5049692;28;20036;-77
2022/06/07 11:18:24;;;;;;;21.10;11.52;;;;;;;;;;5049848;28;20040;-76
2022/06/07 11:21:03;;;;;;;17.27;10.55;;;;;;;;;;5040074;28;20032;-76
2022/06/07 11:23:33;;;;;;;14.13;9.07;;;;;;;;;;5037549;28;20030;-77
2022/06/07 11:26:06;;;;;;;17.50;10.52;;;;;;;;;;5034742;28;20467;-77
2022/06/07 11:28:43;;;;;;;25.77;14.30;;;;;;;;;;5035750;28;20048;-77
2022/06/07 11:31:15;;;;;;;24.77;16.58;;;;;;;;;;5037551;28;20029;-77
2022/06/07 11:33:48;;;;;;;26.83;13.50;;;;;;;;;;5037277;28;20017;-77
2022/06/07 11:36:13;;;;;;;20.88;11.75;;;;;;;;;;5036445;28;20025;-76
2022/06/07 11:41:39;;;;;;;16.73;12.02;;;;;;;;;;5035749;28;20497;-77
2022/06/07 11:44:05;;;;;;;16.97;11.20;;;;;;;;;;5035655;28;20162;-76
2022/06/07 11:46:33;;;;;;;20.63;11.85;;;;;;;;;;5033861;28;20025;-77
2022/06/07 11:49:20;;;;;;;19.75;12.48;;;;;;;;;;5036054;28;20129;-78
2022/06/07 11:51:53;;;;;;;21.95;13.40;;;;;;;;;;5033951;28;20454;-77
2022/06/07 11:54:22;;;;;;;20.38;12.77;;;;;;;;;;5036537;28;20057;-78
2022/06/07 11:56:51;;;;;;;18.45;12.00;;;;;;;;;;5037926;28;20045;-78
2022/06/07 11:59:20;;;;;;;23.45;13.60;;;;;;;;;;5039652;28;20022;-78
2022/06/07 12:01:47;;;;;;;18.15;10.93;;;;;;;;;;5035744;28;20033;-77
2022/06/07 12:04:32;;;;;;;20.95;12.02;;;;;;;;;;5033855;28;20113;-77
2022/06/07 12:07:00;;;;;;;16.77;10.38;;;;;;;;;;5035211;28;20029;-78
2022/06/07 12:09:28;;;;;;;17.70;10.45;;;;;;;;;;5034121;28;20032;-79
2022/06/07 12:11:54;;;;;;;16.60;11.30;;;;;;;;;;5036626;28;20105;-77
2022/06/07 12:14:26;;;;;;;17.88;11.20;;;;;;;;;;5034198;28;20045;-76
2022/06/07 12:16:55;;;;;;;16.83;11.32;;;;;;;;;;5034606;28;20033;-76
2022/06/07 12:19:22;;;;;;;16.98;10.70;;;;;;;;;;5034705;28;20053;-76
2022/06/07 12:21:54;;;;;;;21.20;12.10;;;;;;;;;;5033771;28;20104;-76
2022/06/07 12:24:20;;;;;;;23.05;11.18;;;;;;;;;;5031931;28;20087;-77
2022/06/07 12:26:47;;;;;;;15.23;11.27;;;;;;;;;;5031988;28;20026;-76
2022/06/07 12:29:24;;;;;;;20.05;11.35;;;;;;;;;;5036462;28;20478;-79
2022/06/07 12:31:55;;;;;;;17.88;11.60;;;;;;;;;;5046831;28;20036;-78
2022/06/07 12:34:23;;;;;;;14.63;11.00;;;;;;;;;;5043871;28;20095;-76
2022/06/07 12:36:57;;;;;;;21.15;11.23;;;;;;;;;;5039135;28;20451;-77
2022/06/07 12:39:24;;;;;;;25.23;11.18;;;;;;;;;;5040781;28;20493;-76
2022/06/07 12:41:56;;;;;;;21.40;10.80;;;;;;;;;;5042372;28;20236;-75
2022/06/07 12:44:24;;;;;;;20.83;10.50;;;;;;;;;;5044187;28;20109;-76
2022/06/07 12:46:50;;;;;;;17.90;10.13;;;;;;;;;;5043042;28;20017;-76
2022/06/07 12:49:30;;;;;;;18.95;10.18;;;;;;;;;;5042132;28;20045;-77
2022/06/07 12:52:07;;;;;;;16.95;10.68;;;;;;;;;;5038974;28;20028;-77
2022/06/07 12:54:34;;;;;;;19.20;10.88;;;;;;;;;;5034940;28;20132;-77
2022/06/07 12:57:01;;;;;;;23.05;11.20;;;;;;;;;;5035118;28;20482;-78
2022/06/07 12:59:35;;;;;;;19.88;11.57;;;;;;;;;;5035900;28;20394;-77
2022/06/07 13:02:02;;;;;;;19.67;11.65;;;;;;;;;;5034694;28;20083;-77
2022/06/07 13:04:58;;;;;;;18.35;10.65;;;;;;;;;;5033546;28;20033;-77
2022/06/07 13:07:28;;;;;;;20.25;11.23;;;;;;;;;;5019558;28;20628;-77
2022/06/07 13:09:57;;;;;;;20.42;12.13;;;;;;;;;;5034664;28;20033;-77
2022/06/07 13:12:29;;;;;;;20.55;11.35;;;;;;;;;;5032508;28;20036;-76
2022/06/07 13:14:55;;;;;;;22.00;12.52;;;;;;;;;;5033595;28;20030;-77
2022/06/07 13:17:32;;;;;;;19.30;10.23;;;;;;;;;;5032016;28;20079;-77
2022/06/07 13:19:59;;;;;;;19.90;11.13;;;;;;;;;;5032440;28;20049;-72
2022/06/07 13:22:25;;;;;;;19.85;11.80;;;;;;;;;;5033203;28;20043;-76
2022/06/07 13:24:57;;;;;;;21.25;12.45;;;;;;;;;;5031355;28;20017;-77
2022/06/07 13:27:26;;;;;;;20.55;10.00;;;;;;;;;;5030639;28;20022;-77
2022/06/07 13:29:53;;;;;;;21.15;10.80;;;;;;;;;;5032478;28;20033;-76
2022/06/07 13:32:22;;;;;;;21.27;11.30;;;;;;;;;;5034588;28;20112;-77
2022/06/07 13:34:53;;;;;;;20.85;11.88;;;;;;;;;;5028891;28;20080;-78
2022/06/07 13:37:20;;;;;;;22.50;11.98;;;;;;;;;;5032006;28;20768;-77
2022/06/07 13:40:05;;;;;;;18.15;12.93;;;;;;;;;;5029980;28;20025;-78
2022/06/07 13:42:39;;;;;;;19.83;10.38;;;;;;;;;;5047530;28;20052;-75
2022/06/07 13:45:11;;;;;;;18.33;10.82;;;;;;;;;;5032902;28;20040;-75
2022/06/07 13:47:39;;;;;;;22.85;11.65;;;;;;;;;;5036174;28;20044;-76
2022/06/07 13:53:24;;;;;;;23.17;14.45;;;;;;;;;;5038640;28;20116;-77
2022/06/07 13:55:51;;;;;;;19.98;12.60;;;;;;;;;;5037504;28;20544;-77
2022/06/07 13:58:18;;;;;;;22.00;12.68;;;;;;;;;;5045958;28;20167;-75
2022/06/07 14:00:45;;;;;;;20.13;13.38;;;;;;;;;;5047836;28;20029;-75
2022/06/07 14:03:25;;;;;;;20.98;11.70;;;;;;;;;;5047130;28;20050;-72
2022/06/07 14:05:51;;;;;;;22.67;12.23;;;;;;;;;;5042311;28;20045;-76
2022/06/07 14:08:18;;;;;;;22.92;12.63;;;;;;;;;;5042433;28;20076;-77
2022/06/07 14:10:44;;;;;;;22.35;12.05;;;;;;;;;;5041447;28;20025;-76
2022/06/07 14:13:10;;;;;;;18.73;10.07;;;;;;;;;;5040089;28;20443;-74
2022/06/07 14:15:37;;;;;;;15.77;9.27;;;;;;;;;;5039811;28;20070;-74
2022/06/07 14:18:03;;;;;;;14.32;9.27;;;;;;;;;;5041146;28;20045;-76
2022/06/07 14:20:31;;;;;;;14.68;9.10;;;;;;;;;;5036054;28;20030;-75
2022/06/07 14:22:57;;;;;;;16.52;8.27;;;;;;;;;;5034488;28;20076;-76
2022/06/07 14:25:25;;;;;;;15.15;8.18;;;;;;;;;;5037029;28;20608;-78
2022/06/07 14:27:52;;;;;;;18.30;8.45;;;;;;;;;;5035652;28;20022;-77
2022/06/07 14:30:18;;;;;;;14.45;8.07;;;;;;;;;;5036637;28;20025;-76
2022/06/07 14:33:00;;;;;;;14.23;8.50;;;;;;;;;;5035966;28;20363;-77
2022/06/07 14:35:30;;;;;;;14.00;9.10;;;;;;;;;;5035041;28;20045;-76
2022/06/07 14:38:00;;;;;;;14.45;8.13;;;;;;;;;;5034603;28;20048;-77
2022/06/07 14:40:36;;;;;;;17.17;9.75;;;;;;;;;;5035870;28;20046;-77
2022/06/07 14:43:02;;;;;;;16.17;8.93;;;;;;;;;;5036911;28;20067;-76
2022/06/07 14:45:32;;;;;;;15.93;8.55;;;;;;;;;;5037497;28;20030;-77
2022/06/07 14:48:00;;;;;;;13.00;8.18;;;;;;;;;;5039860;28;20387;-77
2022/06/07 14:50:26;;;;;;;12.75;8.63;;;;;;;;;;5041212;28;20017;-77
2022/06/07 14:52:52;;;;;;;18.20;8.13;;;;;;;;;;5041225;28;20045;-76
2022/06/07 14:55:22;;;;;;;14.93;7.75;;;;;;;;;;5037048;28;20033;-77
2022/06/07 14:57:48;;;;;;;18.25;6.57;;;;;;;;;;5033899;28;20029;-76
2022/06/07 15:00:18;;;;;;;14.77;7.95;;;;;;;;;;5035437;28;20025;-77
2022/06/07 15:02:45;;;;;;;13.52;6.82;;;;;;;;;;5034592;28;20061;-76
2022/06/07 15:05:16;;;;;;;12.02;7.13;;;;;;;;;;5038120;28;20037;-75
2022/06/07 15:07:53;;;;;;;15.05;7.55;;;;;;;;;;5037171;28;20032;-77
2022/06/07 15:10:21;;;;;;;17.38;8.05;;;;;;;;;;5036231;28;20032;-76
2022/06/07 15:12:47;;;;;;;13.30;7.50;;;;;;;;;;5036949;28;20021;-77
2022/06/07 15:15:13;;;;;;;18.20;7.90;;;;;;;;;;5035473;28;20097;-76